createdAt,value
2023-04-29T00:01:03.580Z,9.71
2023-04-29T00:03:32.509Z,9.66
2023-04-29T00:06:00.157Z,9.65
2023-04-29T00:08:27.015Z,9.59
2023-04-29T00:10:53.524Z,9.56
2023-04-29T00:13:20.035Z,9.77
2023-04-29T00:15:46.514Z,10.00
2023-04-29T00:18:14.078Z,9.88
2023-04-29T00:20:40.621Z,9.85
2023-04-29T00:23:07.689Z,9.84
2023-04-29T00:25:34.215Z,9.84
2023-04-29T00:28:02.172Z,9.78
2023-04-29T00:30:29.100Z,9.83
2023-04-29T00:32:55.743Z,9.88
2023-04-29T00:35:22.382Z,9.90
2023-04-29T00:37:49.403Z,9.89
2023-04-29T00:40:17.358Z,9.86
2023-04-29T00:42:43.894Z,9.81
2023-04-29T00:45:13.834Z,9.80
2023-04-29T00:47:40.375Z,9.60
2023-04-29T00:50:07.896Z,9.52
2023-04-29T00:52:35.224Z,9.38
2023-04-29T00:55:02.662Z,9.22
2023-04-29T00:57:30.092Z,9.05
2023-04-29T00:59:58.415Z,9.12
2023-04-29T01:02:26.610Z,9.14
2023-04-29T01:04:53.183Z,9.10
2023-04-29T01:07:34.511Z,8.96
2023-04-29T01:10:10.655Z,8.92
2023-04-29T01:12:37.106Z,8.89
2023-04-29T01:15:09.034Z,8.96
2023-04-29T01:17:47.630Z,9.11
2023-04-29T01:20:15.456Z,9.25
2023-04-29T01:22:42.442Z,9.34
2023-04-29T01:25:09.974Z,9.50
2023-04-29T01:28:24.245Z,9.55
2023-04-29T01:31:11.264Z,9.58
2023-04-29T01:33:42.874Z,9.55
2023-04-29T01:36:19.570Z,9.47
2023-04-29T01:38:58.087Z,9.25
2023-04-29T01:41:49.287Z,9.06
2023-04-29T01:44:27.259Z,9.03
2023-04-29T01:46:54.413Z,8.98
2023-04-29T01:49:27.905Z,8.90
2023-04-29T01:51:55.868Z,8.82
2023-04-29T01:54:22.854Z,8.56
2023-04-29T01:56:49.614Z,8.30
2023-04-29T01:59:23.603Z,8.18
2023-04-29T02:02:05.555Z,7.98
2023-04-29T02:04:34.434Z,7.81
2023-04-29T02:07:03.252Z,7.72
2023-04-29T02:09:30.304Z,7.69
2023-04-29T02:12:05.727Z,7.68
2023-04-29T02:14:35.042Z,7.79
2023-04-29T02:17:03.610Z,7.76
2023-04-29T02:19:30.544Z,7.74
2023-04-29T02:21:57.147Z,7.75
2023-04-29T02:24:25.645Z,7.61
2023-04-29T02:26:52.158Z,7.51
2023-04-29T02:29:19.023Z,7.60
2023-04-29T02:31:45.608Z,7.63
2023-04-29T02:34:12.142Z,7.75
2023-04-29T02:36:38.624Z,7.69
2023-04-29T02:39:05.288Z,7.85
2023-04-29T02:41:31.721Z,7.88
2023-04-29T02:43:58.173Z,7.97
2023-04-29T02:46:24.851Z,8.14
2023-04-29T02:48:52.891Z,8.37
2023-04-29T02:51:20.080Z,8.60
2023-04-29T02:53:46.836Z,8.73
2023-04-29T02:56:13.273Z,8.81
2023-04-29T02:58:39.839Z,8.84
2023-04-29T03:01:07.125Z,8.87
2023-04-29T03:03:33.744Z,8.91
2023-04-29T03:06:00.349Z,8.85
2023-04-29T03:08:27.970Z,8.90
2023-04-29T03:10:54.465Z,8.77
2023-04-29T03:13:20.999Z,8.77
2023-04-29T03:15:47.612Z,8.74
2023-04-29T03:18:14.563Z,8.63
2023-04-29T03:20:41.037Z,8.62
2023-04-29T03:23:07.475Z,8.19
2023-04-29T03:25:33.931Z,8.05
2023-04-29T03:28:00.378Z,7.87
2023-04-29T03:30:26.945Z,7.89
2023-04-29T03:32:56.723Z,7.85
2023-04-29T03:35:23.660Z,7.87
2023-04-29T03:38:16.134Z,7.81
2023-04-29T03:40:44.931Z,7.74
2023-04-29T03:43:12.455Z,7.79
2023-04-29T03:45:39.109Z,7.65
2023-04-29T03:48:06.504Z,7.87
2023-04-29T03:50:33.125Z,7.73
2023-04-29T03:52:59.687Z,7.70
2023-04-29T03:55:29.437Z,7.92
2023-04-29T03:57:55.867Z,7.91
2023-04-29T04:00:22.522Z,8.01
2023-04-29T04:02:54.193Z,7.98
2023-04-29T04:05:21.481Z,7.95
2023-04-29T04:07:53.217Z,8.04
2023-04-29T04:10:31.858Z,7.85
2023-04-29T04:13:00.654Z,7.98
2023-04-29T04:15:27.113Z,7.85
2023-04-29T04:17:53.855Z,8.00
2023-04-29T04:20:20.515Z,7.95
2023-04-29T04:22:49.113Z,7.75
2023-04-29T04:25:20.501Z,7.73
2023-04-29T04:27:47.077Z,7.82
2023-04-29T04:30:23.429Z,7.92
2023-04-29T04:32:49.929Z,7.90
2023-04-29T04:35:16.754Z,7.93
2023-04-29T04:37:43.290Z,7.87
2023-04-29T04:40:11.944Z,7.97
2023-04-29T04:42:55.283Z,7.88
2023-04-29T04:45:22.641Z,7.99
2023-04-29T04:47:50.835Z,8.05
2023-04-29T04:50:21.340Z,8.12
2023-04-29T04:52:50.653Z,8.17
2023-04-29T04:55:37.089Z,8.34
2023-04-29T04:58:03.739Z,8.48
2023-04-29T05:00:30.376Z,8.53
2023-04-29T05:02:57.313Z,8.54
2023-04-29T05:05:24.178Z,8.52
2023-04-29T05:07:51.319Z,8.64
2023-04-29T05:10:26.372Z,8.41
2023-04-29T05:12:54.883Z,8.50
2023-04-29T05:15:21.643Z,8.62
2023-04-29T05:17:51.086Z,8.84
2023-04-29T05:20:17.718Z,9.01
2023-04-29T05:22:44.177Z,9.06
2023-04-29T05:25:10.755Z,9.11
2023-04-29T05:27:37.204Z,9.02
2023-04-29T05:30:07.339Z,9.07
2023-04-29T05:32:34.141Z,10.04
2023-04-29T05:35:00.906Z,10.81
2023-04-29T05:37:30.899Z,12.11
2023-04-29T05:40:13.821Z,13.50
2023-04-29T05:42:46.482Z,14.38
2023-04-29T05:45:13.102Z,13.92
2023-04-29T05:47:39.643Z,13.71
2023-04-29T05:50:06.787Z,14.98
2023-04-29T05:52:33.228Z,15.84
2023-04-29T05:54:59.742Z,15.70
2023-04-29T05:57:26.194Z,14.01
2023-04-29T05:59:55.291Z,13.42
2023-04-29T06:02:22.270Z,12.47
2023-04-29T06:04:49.281Z,13.18
2023-04-29T06:07:27.951Z,14.43
2023-04-29T06:09:59.030Z,16.34
2023-04-29T06:12:26.531Z,17.15
2023-04-29T06:14:53.152Z,17.26
2023-04-29T06:17:20.401Z,16.55
2023-04-29T06:19:46.896Z,15.68
2023-04-29T06:22:13.378Z,15.14
2023-04-29T06:24:47.323Z,15.07
2023-04-29T06:27:18.894Z,15.11
2023-04-29T06:29:45.645Z,15.05
2023-04-29T06:32:13.940Z,14.43
2023-04-29T06:34:40.750Z,13.88
2023-04-29T06:37:23.424Z,13.11
2023-04-29T06:39:56.996Z,13.06
2023-04-29T06:42:41.611Z,13.09
2023-04-29T06:45:31.916Z,12.95
2023-04-29T06:48:22.245Z,13.27
2023-04-29T06:50:58.524Z,13.08
2023-04-29T06:53:25.008Z,13.17
2023-04-29T06:55:51.843Z,13.21
2023-04-29T06:58:20.366Z,13.45
2023-04-29T07:00:48.703Z,13.94
2023-04-29T07:03:16.033Z,14.11
2023-04-29T07:05:45.308Z,14.09
2023-04-29T07:08:12.973Z,14.08
2023-04-29T07:10:39.606Z,13.80
2023-04-29T07:13:06.065Z,13.81
2023-04-29T07:15:36.859Z,13.78
2023-04-29T07:18:05.299Z,13.83
2023-04-29T07:20:32.428Z,13.92
2023-04-29T07:22:59.316Z,13.49
2023-04-29T07:25:29.481Z,13.21
2023-04-29T07:27:56.610Z,12.92
2023-04-29T07:30:25.142Z,12.63
2023-04-29T07:32:51.853Z,12.44
2023-04-29T07:35:18.943Z,12.19
2023-04-29T07:37:45.865Z,12.07
2023-04-29T07:40:13.073Z,12.01
2023-04-29T07:42:39.603Z,11.93
2023-04-29T07:45:07.861Z,11.82
2023-04-29T07:47:34.435Z,11.67
2023-04-29T07:50:01.271Z,11.54
2023-04-29T07:52:27.845Z,11.47
2023-04-29T07:54:56.176Z,11.41
2023-04-29T07:57:22.997Z,11.31
2023-04-29T07:59:55.560Z,11.39
2023-04-29T08:02:22.150Z,11.45
2023-04-29T08:04:51.297Z,11.49
2023-04-29T08:07:18.156Z,11.47
2023-04-29T08:09:44.675Z,11.52
2023-04-29T08:12:11.101Z,11.46
2023-04-29T08:14:40.274Z,11.52
2023-04-29T08:17:07.423Z,11.52
2023-04-29T08:19:33.980Z,11.47
2023-04-29T08:22:01.152Z,11.46
2023-04-29T08:24:29.029Z,11.43
2023-04-29T08:26:55.487Z,11.49
2023-04-29T08:29:21.955Z,11.60
2023-04-29T08:31:48.497Z,11.50
2023-04-29T08:34:15.048Z,11.49
2023-04-29T08:36:41.545Z,11.64
2023-04-29T08:39:08.851Z,11.55
2023-04-29T08:41:39.968Z,11.59
2023-04-29T08:44:06.952Z,11.49
2023-04-29T08:46:33.799Z,11.42
2023-04-29T08:49:03.810Z,11.57
2023-04-29T08:51:32.244Z,11.60
2023-04-29T08:53:58.792Z,11.54
2023-04-29T08:56:27.854Z,11.54
2023-04-29T08:58:58.298Z,11.45
2023-04-29T09:01:28.750Z,11.40
2023-04-29T09:04:10.256Z,11.33
2023-04-29T09:06:36.909Z,11.13
2023-04-29T09:09:03.815Z,11.16
2023-04-29T09:11:30.459Z,11.11
2023-04-29T09:14:04.493Z,11.11
2023-04-29T09:16:31.230Z,11.10
2023-04-29T09:18:58.102Z,11.12
2023-04-29T09:21:29.525Z,11.13
2023-04-29T09:23:57.964Z,10.90
2023-04-29T09:26:25.049Z,10.87
2023-04-29T09:29:06.522Z,10.93
2023-04-29T09:31:33.429Z,10.85
2023-04-29T09:33:59.937Z,10.99
2023-04-29T09:36:49.634Z,11.01
2023-04-29T09:39:20.958Z,11.05
2023-04-29T09:41:50.560Z,11.09
2023-04-29T09:44:17.146Z,11.05
2023-04-29T09:46:43.937Z,11.01
2023-04-29T09:49:32.724Z,11.13
2023-04-29T09:52:01.392Z,11.30
2023-04-29T09:54:29.813Z,11.38
2023-04-29T09:56:58.491Z,11.43
2023-04-29T09:59:25.593Z,11.38
2023-04-29T10:01:54.481Z,11.44
2023-04-29T10:04:22.725Z,11.41
2023-04-29T10:06:51.417Z,11.44
2023-04-29T10:09:19.502Z,11.50
2023-04-29T10:11:48.090Z,11.43
2023-04-29T10:14:22.442Z,11.47
2023-04-29T10:16:54.484Z,11.48
2023-04-29T10:19:27.614Z,11.63
2023-04-29T10:21:57.714Z,11.62
2023-04-29T10:24:25.815Z,11.68
2023-04-29T10:26:56.110Z,11.73
2023-04-29T10:29:25.397Z,11.75
2023-04-29T10:31:53.165Z,11.83
2023-04-29T10:34:20.580Z,12.04
2023-04-29T10:36:47.411Z,12.02
2023-04-29T10:39:26.328Z,12.08
2023-04-29T10:41:53.888Z,11.98
2023-04-29T10:44:20.339Z,12.16
2023-04-29T10:46:46.856Z,12.15
2023-04-29T10:49:13.350Z,12.30
2023-04-29T10:51:45.018Z,12.45
2023-04-29T10:54:16.629Z,12.52
2023-04-29T10:56:50.953Z,12.48
2023-04-29T10:59:22.099Z,12.83
2023-04-29T11:01:55.211Z,12.87
2023-04-29T11:04:22.949Z,13.08
2023-04-29T11:06:55.317Z,12.87
2023-04-29T11:09:30.664Z,12.91
2023-04-29T11:12:05.348Z,12.67
2023-04-29T11:14:51.255Z,12.52
2023-04-29T11:17:23.285Z,12.40
2023-04-29T11:19:51.648Z,12.45
2023-04-29T11:22:37.751Z,12.42
2023-04-29T11:25:19.023Z,12.56
2023-04-29T11:33:41.793Z,12.71
2023-04-29T11:36:17.364Z,12.82
2023-04-29T11:38:59.428Z,12.84
2023-04-29T11:41:33.969Z,12.87
2023-04-29T11:44:11.012Z,12.98
2023-04-29T11:46:47.947Z,13.12
2023-04-29T11:49:16.910Z,12.94
2023-04-29T11:51:43.409Z,13.18
2023-04-29T11:54:09.916Z,13.23
2023-04-29T11:56:38.217Z,13.18
2023-04-29T11:59:08.031Z,13.25
2023-04-29T12:01:35.890Z,13.27
2023-04-29T12:04:03.294Z,13.17
2023-04-29T12:06:30.637Z,13.18
2023-04-29T12:09:01.742Z,13.16
2023-04-29T12:11:28.850Z,12.93
2023-04-29T12:13:56.692Z,12.85
2023-04-29T12:16:24.159Z,12.68
2023-04-29T12:18:54.157Z,12.64
2023-04-29T12:21:22.522Z,12.81
2023-04-29T12:23:49.024Z,12.91
2023-04-29T12:26:17.302Z,12.82
2023-04-29T12:28:43.739Z,12.63
2023-04-29T12:31:13.959Z,12.54
2023-04-29T12:33:44.259Z,12.73
2023-04-29T12:36:18.400Z,12.71
2023-04-29T12:38:45.410Z,12.55
2023-04-29T12:41:14.440Z,12.44
2023-04-29T12:43:41.675Z,12.58
2023-04-29T12:46:10.039Z,12.41
2023-04-29T12:48:44.012Z,12.48
2023-04-29T12:51:11.552Z,12.29
2023-04-29T12:53:38.896Z,12.22
2023-04-29T12:56:06.492Z,12.22
2023-04-29T12:58:34.830Z,12.10
2023-04-29T13:01:01.411Z,12.13
2023-04-29T13:03:28.671Z,12.11
2023-04-29T13:05:55.313Z,12.01
2023-04-29T13:08:22.718Z,11.99
2023-04-29T13:10:49.633Z,11.83
2023-04-29T13:13:16.277Z,11.93
2023-04-29T13:15:42.766Z,12.12
2023-04-29T13:18:09.217Z,12.25
2023-04-29T13:20:40.957Z,12.25
2023-04-29T13:23:08.665Z,12.19
2023-04-29T13:25:35.131Z,12.31
2023-04-29T13:28:01.924Z,12.60
2023-04-29T13:30:28.431Z,12.55
2023-04-29T13:32:59.257Z,12.80
2023-04-29T13:35:35.976Z,12.73
2023-04-29T13:38:02.792Z,12.81
2023-04-29T13:40:30.864Z,12.62
2023-04-29T13:43:04.352Z,12.78
2023-04-29T13:45:38.783Z,12.74
2023-04-29T13:48:16.309Z,12.83
2023-04-29T13:53:50.856Z,12.99
2023-04-29T13:59:19.526Z,12.96
2023-04-29T14:02:14.931Z,12.76
2023-04-29T14:04:11.604Z,12.47
2023-04-29T14:06:38.363Z,12.22
2023-04-29T14:09:04.819Z,12.06
2023-04-29T14:11:31.777Z,12.04
2023-04-29T14:13:58.212Z,12.03
2023-04-29T14:16:24.854Z,12.02
2023-04-29T14:18:51.488Z,11.86
2023-04-29T14:21:17.995Z,11.70
2023-04-29T14:23:44.513Z,11.62
2023-04-29T14:26:27.302Z,11.49
2023-04-29T14:28:59.698Z,11.57
2023-04-29T14:31:28.166Z,11.54
2023-04-29T14:33:59.634Z,11.54
2023-04-29T14:36:26.811Z,11.60
2023-04-29T14:38:54.094Z,11.57
2023-04-29T14:41:23.571Z,11.72
2023-04-29T14:43:50.073Z,12.06
2023-04-29T14:46:17.018Z,12.81
2023-04-29T14:48:43.748Z,13.49
2023-04-29T14:51:10.625Z,13.73
2023-04-29T14:53:37.158Z,13.58
2023-04-29T14:56:03.873Z,13.47
2023-04-29T14:58:30.522Z,13.49
2023-04-29T15:00:57.052Z,13.49
2023-04-29T15:03:23.624Z,13.45
2023-04-29T15:05:51.386Z,13.44
2023-04-29T15:08:19.160Z,13.37
2023-04-29T15:10:47.326Z,13.43
2023-04-29T15:13:13.875Z,13.38
2023-04-29T15:15:40.755Z,13.30
2023-04-29T15:18:08.785Z,13.36
2023-04-29T15:20:36.680Z,13.28
2023-04-29T15:23:04.173Z,13.28
2023-04-29T15:25:33.321Z,13.43
2023-04-29T15:28:00.345Z,13.19
2023-04-29T15:30:27.269Z,13.26
2023-04-29T15:32:54.962Z,13.21
2023-04-29T15:35:21.612Z,13.33
2023-04-29T15:37:48.046Z,13.62
2023-04-29T15:40:14.623Z,13.76
2023-04-29T15:42:41.070Z,13.48
2023-04-29T15:45:08.831Z,13.70
2023-04-29T15:47:35.916Z,13.79
2023-04-29T15:50:03.237Z,13.49
2023-04-29T15:52:29.682Z,13.51
2023-04-29T15:54:56.131Z,13.37
2023-04-29T15:57:22.618Z,13.40
2023-04-29T15:59:49.109Z,13.34
2023-04-29T16:02:15.979Z,13.22
2023-04-29T16:04:42.443Z,13.22
2023-04-29T16:07:09.150Z,13.06
2023-04-29T16:09:35.870Z,13.04
2023-04-29T16:12:02.392Z,13.10
2023-04-29T16:14:29.977Z,13.08
2023-04-29T16:16:56.594Z,13.14
2023-04-29T16:19:23.167Z,13.02
2023-04-29T16:21:49.617Z,13.05
2023-04-29T16:24:16.137Z,12.72
2023-04-29T16:26:42.780Z,12.56
2023-04-29T16:29:10.016Z,12.38
2023-04-29T16:31:36.514Z,12.30
2023-04-29T16:34:03.300Z,12.41
2023-04-29T16:36:30.133Z,12.63
2023-04-29T16:38:57.861Z,12.77
2023-04-29T16:41:26.018Z,12.76
2023-04-29T16:43:55.823Z,12.61
2023-04-29T16:46:22.430Z,12.60
2023-04-29T16:48:51.830Z,12.58
2023-04-29T16:51:18.813Z,12.49
2023-04-29T16:53:45.726Z,12.37
2023-04-29T16:56:12.368Z,12.29
2023-04-29T16:58:38.959Z,12.32
2023-04-29T17:01:07.270Z,12.30
2023-04-29T17:03:33.833Z,12.22
2023-04-29T17:06:00.504Z,12.18
2023-04-29T17:08:27.213Z,12.19
2023-04-29T17:10:53.961Z,12.18
2023-04-29T17:13:20.732Z,12.31
2023-04-29T17:15:47.813Z,12.36
2023-04-29T17:18:14.317Z,12.32
2023-04-29T17:20:42.028Z,12.30
2023-04-29T17:23:08.796Z,12.20
2023-04-29T17:25:37.517Z,11.98
2023-04-29T17:28:04.537Z,11.79
2023-04-29T17:30:31.328Z,11.73
2023-04-29T17:32:57.933Z,11.57
2023-04-29T17:35:24.695Z,11.52
2023-04-29T17:37:51.159Z,11.45
2023-04-29T17:40:17.619Z,11.47
2023-04-29T17:42:44.079Z,11.42
2023-04-29T17:45:11.168Z,11.36
2023-04-29T17:47:37.599Z,11.25
2023-04-29T17:50:04.267Z,11.24
2023-04-29T17:52:31.505Z,11.33
2023-04-29T17:54:57.971Z,11.33
2023-04-29T17:57:24.446Z,11.21
2023-04-29T17:59:50.987Z,11.18
2023-04-29T18:02:17.431Z,11.23
2023-04-29T18:04:43.850Z,11.30
2023-04-29T18:07:10.396Z,11.30
2023-04-29T18:09:36.849Z,11.21
2023-04-29T18:12:03.633Z,11.21
2023-04-29T18:14:31.007Z,11.20
2023-04-29T18:17:00.917Z,11.04
2023-04-29T18:19:28.061Z,11.05
2023-04-29T18:21:59.201Z,10.78
2023-04-29T18:24:26.049Z,10.88
2023-04-29T18:26:52.672Z,10.83
2023-04-29T18:29:19.093Z,10.88
2023-04-29T18:31:46.235Z,10.87
2023-04-29T18:34:12.698Z,10.74
2023-04-29T18:36:39.128Z,10.72
2023-04-29T18:39:05.554Z,10.74
2023-04-29T18:41:33.090Z,10.76
2023-04-29T18:43:59.504Z,10.62
2023-04-29T18:46:26.011Z,10.65
2023-04-29T18:48:52.442Z,10.63
2023-04-29T18:51:19.093Z,10.57
2023-04-29T18:53:45.623Z,10.58
2023-04-29T18:56:12.252Z,10.64
2023-04-29T18:58:38.673Z,10.54
2023-04-29T19:01:05.905Z,10.58
2023-04-29T19:03:32.408Z,10.46
2023-04-29T19:05:58.967Z,10.52
2023-04-29T19:08:25.799Z,10.53
2023-04-29T19:10:53.460Z,10.54
2023-04-29T19:13:19.993Z,10.46
2023-04-29T19:15:50.445Z,10.45
2023-04-29T19:18:20.258Z,10.43
2023-04-29T19:20:47.000Z,10.35
2023-04-29T19:23:13.458Z,10.26
2023-04-29T19:25:40.011Z,10.29
2023-04-29T19:28:06.486Z,10.31
2023-04-29T19:30:33.410Z,10.37
2023-04-29T19:32:59.921Z,10.33
2023-04-29T19:35:26.956Z,10.45
2023-04-29T19:37:54.773Z,10.22
2023-04-29T19:40:21.252Z,10.43
2023-04-29T19:42:47.705Z,10.33
2023-04-29T19:45:14.315Z,10.37
2023-04-29T19:47:41.009Z,10.34
2023-04-29T19:50:07.802Z,10.32
2023-04-29T19:52:34.306Z,10.36
2023-04-29T19:55:00.798Z,10.30
2023-04-29T19:57:28.318Z,10.31
2023-04-29T19:59:54.998Z,10.30
2023-04-29T20:02:21.922Z,10.25
2023-04-29T20:04:48.384Z,10.22
2023-04-29T20:07:15.012Z,10.33
2023-04-29T20:09:41.571Z,10.35
2023-04-29T20:12:08.048Z,10.30
2023-04-29T20:14:34.498Z,10.28
2023-04-29T20:17:01.184Z,10.37
2023-04-29T20:19:27.782Z,10.15
2023-04-29T20:21:54.331Z,10.13
2023-04-29T20:24:20.859Z,10.08
2023-04-29T20:26:47.597Z,10.24
2023-04-29T20:32:10.873Z,10.24
2023-04-29T20:34:40.028Z,10.17
2023-04-29T20:37:09.433Z,10.14
2023-04-29T20:40:36.611Z,10.09
2023-04-29T20:43:14.337Z,9.98
2023-04-29T20:46:07.212Z,9.97
2023-04-29T20:49:06.006Z,9.92
2023-04-29T20:51:59.731Z,10.05
2023-04-29T20:55:12.108Z,9.89
2023-04-29T20:58:12.168Z,9.95
2023-04-29T21:01:02.409Z,10.04
2023-04-29T21:04:02.948Z,9.94
2023-04-29T21:06:32.135Z,9.84
2023-04-29T21:09:10.407Z,9.98
2023-04-29T21:12:15.706Z,9.80
2023-04-29T21:14:49.270Z,9.95
2023-04-29T21:17:19.539Z,9.77
2023-04-29T21:20:12.614Z,9.83
2023-04-29T21:22:44.126Z,9.79
2023-04-29T21:25:12.827Z,9.76
2023-04-29T21:27:41.482Z,9.82
2023-04-29T21:30:22.976Z,9.89
2023-04-29T21:33:09.933Z,9.91
2023-04-29T21:35:57.757Z,9.99
2023-04-29T21:38:30.069Z,9.87
2023-04-29T21:40:59.689Z,9.87
2023-04-29T21:43:27.625Z,9.95
2023-04-29T21:45:54.786Z,9.82
2023-04-29T21:48:21.890Z,9.86
2023-04-29T21:50:48.881Z,9.83
2023-04-29T21:53:16.572Z,9.78
2023-04-29T21:55:43.288Z,9.84
2023-04-29T21:58:10.908Z,9.81
2023-04-29T22:00:39.075Z,9.91
2023-04-29T22:03:10.766Z,9.91
2023-04-29T22:05:37.348Z,9.95
2023-04-29T22:08:07.017Z,9.86
2023-04-29T22:10:33.522Z,9.74
2023-04-29T22:13:00.080Z,9.75
2023-04-29T22:15:28.756Z,9.75
2023-04-29T22:17:56.835Z,9.88
2023-04-29T22:20:23.459Z,9.83
2023-04-29T22:22:49.976Z,9.95
2023-04-29T22:25:16.547Z,9.81
2023-04-29T22:27:42.998Z,9.88
2023-04-29T22:30:09.855Z,9.84
2023-04-29T22:32:36.351Z,9.74
2023-04-29T22:35:03.017Z,9.81
2023-04-29T22:37:29.499Z,9.82
2023-04-29T22:39:56.853Z,9.90
2023-04-29T22:42:23.584Z,9.82
2023-04-29T22:44:50.029Z,9.82
2023-04-29T22:47:16.786Z,9.79
2023-04-29T22:49:43.289Z,9.83
2023-04-29T22:52:09.780Z,9.81
2023-04-29T22:54:36.291Z,9.73
2023-04-29T22:57:03.958Z,9.90
2023-04-29T22:59:30.726Z,9.83
2023-04-29T23:01:57.369Z,9.80
2023-04-29T23:04:24.706Z,9.77
2023-04-29T23:06:51.678Z,9.63
2023-04-29T23:09:18.190Z,9.74
2023-04-29T23:11:44.924Z,9.89
2023-04-29T23:14:11.396Z,9.89
2023-04-29T23:16:37.841Z,9.82
2023-04-29T23:19:04.699Z,9.80
2023-04-29T23:21:31.167Z,9.85
2023-04-29T23:23:57.733Z,9.84
2023-04-29T23:26:24.256Z,9.74
2023-04-29T23:28:50.722Z,9.77
2023-04-29T23:31:17.276Z,9.82
2023-04-29T23:33:44.224Z,9.81
2023-04-29T23:36:11.762Z,9.89
2023-04-29T23:38:38.256Z,9.84
2023-04-29T23:41:04.918Z,9.84
2023-04-29T23:43:32.055Z,9.75
2023-04-29T23:45:58.529Z,9.80
2023-04-29T23:48:25.022Z,9.81
2023-04-29T23:50:51.457Z,9.75
2023-04-29T23:53:18.660Z,9.67
2023-04-29T23:55:45.346Z,9.66
2023-04-29T23:58:11.850Z,9.76
